PWSweather.com
Personal Weather Stations
Station Observations
UXOLA
Alcoy, AlcoyES

AlcoyAlcoyES

Lat: 38.70299, Lon: -0.48184

Elevation: 1935

Station Type: PCE FWS-20,

http://www.fiestasalcoy.xyz

Latest ConditionsUpdated 10:00:00 PM GMT+01:01 Friday, May 25, 2018
Currently Today's Max Today's Min Today's Average
Temperature 64.0°F17.8°C 70.7°F21.5°C 58.1°F14.5°C 62.6°F17.0°C
Dew Point 54.1°F12.3°C 58.5°F14.7°C 51.6°F10.9°C 54.9°F12.7°C
Winds 3.1 mph NW5.0 kmh NW 9.2 mph ESE14.8 kmh ESE - 4.0 mph 6.4 kmh
Wind Gusts 5.4 mph8.7 kmh 14.5 mph23.3 kmh - -
Humidity 70% 88% 64% 76%
Pressure 29.73 in1006.8 mb 29.75 in1007.5 mb 29.66 in1004.4 mb -
Hour Temp Dew Point Humidity Winds Wind Gusts Pressure Precip Precip Rate Daily Precip Total
10:00 PM 64.0°F17.8°C 54.1°F12.3°C 70% 3.1 mph NW5.0 kmh NW 5.4 mph8.7 kmh 29.73 in1006.8 mb 0.00 in0.0 mm 0.00 in0.0 mm 0.00 in0.0 mm
09:45 PM 64.0°F17.8°C 54.1°F12.3°C 70% 5.4 mph N8.7 kmh N 6.0 mph9.7 kmh 29.73 in1006.8 mb 0.00 in0.0 mm 0.00 in0.0 mm 0.00 in0.0 mm
09:30 PM 64.2°F17.9°C 54.2°F12.3°C 70% 3.8 mph NW6.1 kmh NW 6.9 mph11.1 kmh 29.73 in1006.8 mb 0.00 in0.0 mm 0.00 in0.0 mm 0.00 in0.0 mm
09:15 PM 64.2°F17.9°C 54.2°F12.3°C 70% 6.0 mph WNW9.7 kmh WNW 7.6 mph12.2 kmh 29.72 in1006.4 mb 0.00 in0.0 mm 0.00 in0.0 mm 0.00 in0.0 mm
09:00 PM 64.2°F17.9°C 54.2°F12.3°C 70% 4.5 mph WNW7.2 kmh WNW 6.9 mph11.1 kmh 29.71 in1006.1 mb 0.00 in0.0 mm 0.00 in0.0 mm 0.00 in0.0 mm
08:45 PM 64.4°F18.0°C 54.4°F12.4°C 70% 0.7 mph NE1.1 kmh NE 4.5 mph7.2 kmh 29.71 in1006.1 mb 0.00 in0.0 mm 0.00 in0.0 mm 0.00 in0.0 mm
08:30 PM 64.9°F18.3°C 54.9°F12.7°C 70% 5.4 mph NW8.7 kmh NW 10.7 mph17.2 kmh 29.71 in1006.1 mb 0.00 in0.0 mm 0.00 in0.0 mm 0.00 in0.0 mm
08:15 PM 65.5°F18.6°C 55.5°F13.1°C 70% 3.1 mph E5.0 kmh E 3.8 mph6.1 kmh 29.71 in1006.1 mb 0.00 in0.0 mm 0.00 in0.0 mm 0.00 in0.0 mm
08:00 PM 65.8°F18.8°C 56.6°F13.7°C 72% 4.5 mph ESE7.2 kmh ESE 6.0 mph9.7 kmh 29.70 in1005.8 mb 0.00 in0.0 mm 0.00 in0.0 mm 0.00 in0.0 mm
07:45 PM 66.0°F18.9°C 56.8°F13.8°C 72% 3.8 mph ESE6.1 kmh ESE 6.0 mph9.7 kmh 29.69 in1005.4 mb 0.00 in0.0 mm 0.00 in0.0 mm 0.00 in0.0 mm
07:30 PM 66.6°F19.2°C 56.9°F13.8°C 71% 5.4 mph ESE8.7 kmh ESE 6.9 mph11.1 kmh 29.68 in1005.1 mb 0.00 in0.0 mm 0.00 in0.0 mm 0.00 in0.0 mm
07:15 PM 67.1°F19.5°C 57.0°F13.9°C 70% 6.0 mph SE9.7 kmh SE 11.4 mph18.3 kmh 29.67 in1004.7 mb 0.00 in0.0 mm 0.00 in0.0 mm 0.00 in0.0 mm
07:00 PM 68.2°F20.1°C 56.8°F13.8°C 67% 6.9 mph SE11.1 kmh SE 8.3 mph13.4 kmh 29.67 in1004.7 mb 0.00 in0.0 mm 0.00 in0.0 mm 0.00 in0.0 mm
06:45 PM 69.4°F20.8°C 57.2°F14.0°C 65% 6.0 mph ESE9.7 kmh ESE 7.6 mph12.2 kmh 29.67 in1004.7 mb 0.00 in0.0 mm 0.00 in0.0 mm 0.00 in0.0 mm
06:30 PM 69.8°F21.0°C 57.1°F13.9°C 64% 0.7 mph E1.1 kmh E 3.1 mph5.0 kmh 29.66 in1004.4 mb 0.00 in0.0 mm 0.00 in0.0 mm 0.00 in0.0 mm
06:15 PM 70.7°F21.5°C 58.0°F14.4°C 64% 1.6 mph SE2.6 kmh SE 5.4 mph8.7 kmh 29.66 in1004.4 mb 0.00 in0.0 mm 0.00 in0.0 mm 0.00 in0.0 mm
06:00 PM 70.3°F21.3°C 57.6°F14.2°C 64% 2.2 mph W3.5 kmh W 5.4 mph8.7 kmh 29.67 in1004.7 mb 0.00 in0.0 mm 0.00 in0.0 mm 0.00 in0.0 mm
05:45 PM 70.3°F21.3°C 58.0°F14.4°C 65% 3.8 mph ESE6.1 kmh ESE 5.4 mph8.7 kmh 29.66 in1004.4 mb 0.00 in0.0 mm 0.00 in0.0 mm 0.00 in0.0 mm
05:30 PM 70.0°F21.1°C 58.5°F14.7°C 67% 1.6 mph ESE2.6 kmh ESE 3.8 mph6.1 kmh 29.67 in1004.7 mb 0.00 in0.0 mm 0.00 in0.0 mm 0.00 in0.0 mm
05:15 PM 69.3°F20.7°C 57.9°F14.4°C 67% 2.2 mph ESE3.5 kmh ESE 5.4 mph8.7 kmh 29.67 in1004.7 mb 0.00 in0.0 mm 0.00 in0.0 mm 0.00 in0.0 mm
05:00 PM 69.1°F20.6°C 58.1°F14.5°C 68% 2.2 mph ESE3.5 kmh ESE 4.5 mph7.2 kmh 29.67 in1004.7 mb 0.00 in0.0 mm 0.00 in0.0 mm 0.00 in0.0 mm
04:45 PM 68.4°F20.2°C 58.2°F14.6°C 70% 2.2 mph SE3.5 kmh SE 7.6 mph12.2 kmh 29.68 in1005.1 mb 0.00 in0.0 mm 0.00 in0.0 mm 0.00 in0.0 mm
04:30 PM 67.3°F19.6°C 57.6°F14.2°C 71% 3.8 mph ESE6.1 kmh ESE 6.0 mph9.7 kmh 29.68 in1005.1 mb 0.00 in0.0 mm 0.00 in0.0 mm 0.00 in0.0 mm
04:15 PM 66.4°F19.1°C 57.1°F13.9°C 72% 4.5 mph SE7.2 kmh SE 6.0 mph9.7 kmh 29.68 in1005.1 mb 0.00 in0.0 mm 0.00 in0.0 mm 0.00 in0.0 mm
04:00 PM 66.0°F18.9°C 57.1°F13.9°C 73% 0.7 mph ESE1.1 kmh ESE 5.4 mph8.7 kmh 29.68 in1005.1 mb 0.00 in0.0 mm 0.00 in0.0 mm 0.00 in0.0 mm
03:45 PM 65.3°F18.5°C 56.4°F13.6°C 73% 5.4 mph SE8.7 kmh SE 6.9 mph11.1 kmh 29.68 in1005.1 mb 0.00 in0.0 mm 0.00 in0.0 mm 0.00 in0.0 mm
03:30 PM 64.9°F18.3°C 56.5°F13.6°C 74% 3.8 mph SE6.1 kmh SE 5.4 mph8.7 kmh 29.69 in1005.4 mb 0.00 in0.0 mm 0.00 in0.0 mm 0.00 in0.0 mm
03:15 PM 64.4°F18.0°C 56.0°F13.3°C 74% 4.5 mph ESE7.2 kmh ESE 7.6 mph12.2 kmh 29.69 in1005.4 mb 0.00 in0.0 mm 0.00 in0.0 mm 0.00 in0.0 mm
03:00 PM 64.8°F18.2°C 55.9°F13.3°C 73% 4.5 mph SE7.2 kmh SE 7.6 mph12.2 kmh 29.69 in1005.4 mb 0.00 in0.0 mm 0.00 in0.0 mm 0.00 in0.0 mm
02:45 PM 65.7°F18.7°C 56.4°F13.6°C 72% 2.2 mph SE3.5 kmh SE 5.4 mph8.7 kmh 29.69 in1005.4 mb 0.00 in0.0 mm 0.00 in0.0 mm 0.00 in0.0 mm
02:30 PM 65.7°F18.7°C 56.0°F13.3°C 71% 2.2 mph NE3.5 kmh NE 4.5 mph7.2 kmh 29.69 in1005.4 mb 0.00 in0.0 mm 0.00 in0.0 mm 0.00 in0.0 mm
02:15 PM 66.2°F19.0°C 56.1°F13.4°C 70% 3.8 mph WSW6.1 kmh WSW 9.2 mph14.8 kmh 29.69 in1005.4 mb 0.00 in0.0 mm 0.00 in0.0 mm 0.00 in0.0 mm
02:00 PM 66.6°F19.2°C 56.9°F13.8°C 71% 3.1 mph ESE5.0 kmh ESE 6.0 mph9.7 kmh 29.69 in1005.4 mb 0.00 in0.0 mm 0.00 in0.0 mm 0.00 in0.0 mm
01:45 PM 65.8°F18.8°C 56.6°F13.7°C 72% 0.7 mph NNE1.1 kmh NNE 3.1 mph5.0 kmh 29.69 in1005.4 mb 0.00 in0.0 mm 0.00 in0.0 mm 0.00 in0.0 mm
01:30 PM 65.3°F18.5°C 56.1°F13.4°C 72% 3.8 mph SE6.1 kmh SE 6.0 mph9.7 kmh 29.69 in1005.4 mb 0.00 in0.0 mm 0.00 in0.0 mm 0.00 in0.0 mm
01:15 PM 65.3°F18.5°C 56.1°F13.4°C 72% 1.6 mph SE2.6 kmh SE 6.0 mph9.7 kmh 29.69 in1005.4 mb 0.00 in0.0 mm 0.00 in0.0 mm 0.00 in0.0 mm
01:00 PM 65.3°F18.5°C 56.1°F13.4°C 72% 3.1 mph SE5.0 kmh SE 6.9 mph11.1 kmh 29.69 in1005.4 mb 0.00 in0.0 mm 0.00 in0.0 mm 0.00 in0.0 mm
12:45 PM 65.7°F18.7°C 56.4°F13.6°C 72% 2.2 mph SE3.5 kmh SE 6.0 mph9.7 kmh 29.69 in1005.4 mb 0.00 in0.0 mm 0.00 in0.0 mm 0.00 in0.0 mm
12:30 PM 65.1°F18.4°C 57.0°F13.9°C 75% 1.6 mph SE2.6 kmh SE 7.6 mph12.2 kmh 29.69 in1005.4 mb 0.00 in0.0 mm 0.00 in0.0 mm 0.00 in0.0 mm
12:15 PM 63.1°F17.3°C 55.8°F13.2°C 77% 2.2 mph ESE3.5 kmh ESE 4.5 mph7.2 kmh 29.69 in1005.4 mb 0.00 in0.0 mm 0.00 in0.0 mm 0.00 in0.0 mm
12:00 PM 62.6°F17.0°C 55.3°F12.9°C 77% 3.1 mph SE5.0 kmh SE 4.5 mph7.2 kmh 29.70 in1005.8 mb 0.00 in0.0 mm 0.00 in0.0 mm 0.00 in0.0 mm
11:45 AM 62.6°F17.0°C 55.3°F12.9°C 77% 2.2 mph ESE3.5 kmh ESE 5.4 mph8.7 kmh 29.70 in1005.8 mb 0.00 in0.0 mm 0.00 in0.0 mm 0.00 in0.0 mm
11:30 AM 63.0°F17.2°C 55.3°F12.9°C 76% 3.1 mph SE5.0 kmh SE 8.3 mph13.4 kmh 29.69 in1005.4 mb 0.00 in0.0 mm 0.00 in0.0 mm 0.00 in0.0 mm
11:15 AM 63.1°F17.3°C 55.5°F13.1°C 76% 3.1 mph ESE5.0 kmh ESE 7.6 mph12.2 kmh 29.69 in1005.4 mb 0.00 in0.0 mm 0.00 in0.0 mm 0.00 in0.0 mm
11:00 AM 63.0°F17.2°C 54.9°F12.7°C 75% 5.4 mph SE8.7 kmh SE 6.9 mph11.1 kmh 29.69 in1005.4 mb 0.00 in0.0 mm 0.00 in0.0 mm 0.00 in0.0 mm
10:45 AM 62.8°F17.1°C 54.8°F12.7°C 75% 2.2 mph SE3.5 kmh SE 6.9 mph11.1 kmh 29.69 in1005.4 mb 0.00 in0.0 mm 0.00 in0.0 mm 0.00 in0.0 mm
10:30 AM 62.2°F16.8°C 55.3°F12.9°C 78% 2.2 mph SE3.5 kmh SE 5.4 mph8.7 kmh 29.70 in1005.8 mb 0.00 in0.0 mm 0.00 in0.0 mm 0.00 in0.0 mm
10:15 AM 61.5°F16.4°C 55.6°F13.1°C 81% 4.5 mph SE7.2 kmh SE 6.9 mph11.1 kmh 29.69 in1005.4 mb 0.00 in0.0 mm 0.00 in0.0 mm 0.00 in0.0 mm
10:00 AM 60.8°F16.0°C 55.9°F13.3°C 84% 1.6 mph ESE2.6 kmh ESE 6.0 mph9.7 kmh 29.69 in1005.4 mb 0.00 in0.0 mm 0.00 in0.0 mm 0.00 in0.0 mm
09:45 AM 59.9°F15.5°C 55.7°F13.2°C 86% 3.1 mph ESE5.0 kmh ESE 6.9 mph11.1 kmh 29.69 in1005.4 mb 0.00 in0.0 mm 0.00 in0.0 mm 0.00 in0.0 mm
09:30 AM 59.4°F15.2°C 55.8°F13.2°C 88% 4.5 mph SE7.2 kmh SE 6.9 mph11.1 kmh 29.69 in1005.4 mb 0.00 in0.0 mm 0.00 in0.0 mm 0.00 in0.0 mm
09:15 AM 59.0°F15.0°C 55.5°F13.1°C 88% 2.2 mph ESE3.5 kmh ESE 6.0 mph9.7 kmh 29.69 in1005.4 mb 0.00 in0.0 mm 0.00 in0.0 mm 0.00 in0.0 mm
09:00 AM 59.2°F15.1°C 55.6°F13.1°C 88% 2.2 mph SE3.5 kmh SE 8.3 mph13.4 kmh 29.69 in1005.4 mb 0.00 in0.0 mm 0.00 in0.0 mm 0.00 in0.0 mm
08:45 AM 59.0°F15.0°C 55.1°F12.8°C 87% 9.2 mph ESE14.8 kmh ESE 9.8 mph15.8 kmh 29.68 in1005.1 mb 0.00 in0.0 mm 0.00 in0.0 mm 0.00 in0.0 mm
08:30 AM 59.2°F15.1°C 55.3°F12.9°C 87% 3.1 mph ESE5.0 kmh ESE 11.4 mph18.3 kmh 29.68 in1005.1 mb 0.00 in0.0 mm 0.00 in0.0 mm 0.00 in0.0 mm
08:15 AM 59.4°F15.2°C 54.9°F12.7°C 85% 5.4 mph ESE8.7 kmh ESE 9.2 mph14.8 kmh 29.69 in1005.4 mb 0.00 in0.0 mm 0.00 in0.0 mm 0.00 in0.0 mm
08:00 AM 59.5°F15.3°C 54.4°F12.4°C 83% 4.5 mph E7.2 kmh E 10.7 mph17.2 kmh 29.68 in1005.1 mb 0.00 in0.0 mm 0.00 in0.0 mm 0.00 in0.0 mm
07:45 AM 59.5°F15.3°C 53.7°F12.1°C 81% 4.5 mph ESE7.2 kmh ESE 6.9 mph11.1 kmh 29.68 in1005.1 mb 0.00 in0.0 mm 0.00 in0.0 mm 0.00 in0.0 mm
07:30 AM 59.4°F15.2°C 53.5°F11.9°C 81% 6.0 mph E9.7 kmh E 10.7 mph17.2 kmh 29.68 in1005.1 mb 0.00 in0.0 mm 0.00 in0.0 mm 0.00 in0.0 mm
07:15 AM 59.2°F15.1°C 53.4°F11.9°C 81% 5.4 mph ESE8.7 kmh ESE 11.4 mph18.3 kmh 29.68 in1005.1 mb 0.00 in0.0 mm 0.00 in0.0 mm 0.00 in0.0 mm
07:00 AM 59.2°F15.1°C 53.0°F11.7°C 80% 4.5 mph ESE7.2 kmh ESE 11.4 mph18.3 kmh 29.68 in1005.1 mb 0.00 in0.0 mm 0.00 in0.0 mm 0.00 in0.0 mm
06:45 AM 59.0°F15.0°C 52.9°F11.6°C 80% 5.4 mph ESE8.7 kmh ESE 10.7 mph17.2 kmh 29.68 in1005.1 mb 0.00 in0.0 mm 0.00 in0.0 mm 0.00 in0.0 mm
06:30 AM 59.2°F15.1°C 53.0°F11.7°C 80% 8.3 mph E13.4 kmh E 9.8 mph15.8 kmh 29.68 in1005.1 mb 0.00 in0.0 mm 0.00 in0.0 mm 0.00 in0.0 mm
06:15 AM 59.0°F15.0°C 52.5°F11.4°C 79% 5.4 mph ESE8.7 kmh ESE 11.4 mph18.3 kmh 29.68 in1005.1 mb 0.00 in0.0 mm 0.00 in0.0 mm 0.00 in0.0 mm
06:00 AM 59.0°F15.0°C 52.5°F11.4°C 79% 5.4 mph ESE8.7 kmh ESE 9.2 mph14.8 kmh 29.67 in1004.7 mb 0.00 in0.0 mm 0.00 in0.0 mm 0.00 in0.0 mm
05:45 AM 58.8°F14.9°C 52.3°F11.3°C 79% 3.8 mph E6.1 kmh E 7.6 mph12.2 kmh 29.67 in1004.7 mb 0.00 in0.0 mm 0.00 in0.0 mm 0.00 in0.0 mm
05:30 AM 58.5°F14.7°C 52.3°F11.3°C 80% 6.0 mph ESE9.7 kmh ESE 9.8 mph15.8 kmh 29.67 in1004.7 mb 0.00 in0.0 mm 0.00 in0.0 mm 0.00 in0.0 mm
05:15 AM 58.3°F14.6°C 52.5°F11.4°C 81% 4.5 mph SE7.2 kmh SE 9.8 mph15.8 kmh 29.66 in1004.4 mb 0.00 in0.0 mm 0.00 in0.0 mm 0.00 in0.0 mm
05:00 AM 58.1°F14.5°C 52.0°F11.1°C 80% 4.5 mph E7.2 kmh E 8.3 mph13.4 kmh 29.66 in1004.4 mb 0.00 in0.0 mm 0.00 in0.0 mm 0.00 in0.0 mm
04:45 AM 58.3°F14.6°C 52.1°F11.2°C 80% 4.5 mph SE7.2 kmh SE 11.4 mph18.3 kmh 29.66 in1004.4 mb 0.00 in0.0 mm 0.00 in0.0 mm 0.00 in0.0 mm
04:30 AM 58.1°F14.5°C 51.6°F10.9°C 79% 6.9 mph E11.1 kmh E 8.3 mph13.4 kmh 29.66 in1004.4 mb 0.00 in0.0 mm 0.00 in0.0 mm 0.00 in0.0 mm
04:15 AM 58.3°F14.6°C 51.8°F11.0°C 79% 4.5 mph ESE7.2 kmh ESE 9.8 mph15.8 kmh 29.67 in1004.7 mb 0.00 in0.0 mm 0.00 in0.0 mm 0.00 in0.0 mm
04:00 AM 58.3°F14.6°C 51.8°F11.0°C 79% 7.6 mph ESE12.2 kmh ESE 11.4 mph18.3 kmh 29.67 in1004.7 mb 0.00 in0.0 mm 0.00 in0.0 mm 0.00 in0.0 mm
03:45 AM 58.5°F14.7°C 52.0°F11.1°C 79% 6.0 mph E9.7 kmh E 12.1 mph19.5 kmh 29.67 in1004.7 mb 0.00 in0.0 mm 0.00 in0.0 mm 0.00 in0.0 mm
03:30 AM 58.6°F14.8°C 51.8°F11.0°C 78% 7.6 mph ESE12.2 kmh ESE 10.7 mph17.2 kmh 29.68 in1005.1 mb 0.00 in0.0 mm 0.00 in0.0 mm 0.00 in0.0 mm
03:15 AM 58.6°F14.8°C 52.2°F11.2°C 79% 6.9 mph ESE11.1 kmh ESE 14.5 mph23.3 kmh 29.68 in1005.1 mb 0.00 in0.0 mm 0.00 in0.0 mm 0.00 in0.0 mm
03:00 AM 58.6°F14.8°C 52.8°F11.6°C 81% 7.6 mph ESE12.2 kmh ESE 13.0 mph20.9 kmh 29.69 in1005.4 mb 0.00 in0.0 mm 0.00 in0.0 mm 0.00 in0.0 mm
02:45 AM 58.5°F14.7°C 52.7°F11.5°C 81% 5.4 mph ESE8.7 kmh ESE 11.4 mph18.3 kmh 29.69 in1005.4 mb 0.00 in0.0 mm 0.00 in0.0 mm 0.00 in0.0 mm
02:30 AM 58.5°F14.7°C 52.7°F11.5°C 81% 6.0 mph SE9.7 kmh SE 12.1 mph19.5 kmh 29.70 in1005.8 mb 0.00 in0.0 mm 0.00 in0.0 mm 0.00 in0.0 mm
02:15 AM 58.5°F14.7°C 53.0°F11.7°C 82% 6.9 mph SE11.1 kmh SE 9.8 mph15.8 kmh 29.70 in1005.8 mb 0.00 in0.0 mm 0.00 in0.0 mm 0.00 in0.0 mm
02:00 AM 58.5°F14.7°C 53.0°F11.7°C 82% 2.2 mph SE3.5 kmh SE 6.0 mph9.7 kmh 29.71 in1006.1 mb 0.00 in0.0 mm 0.00 in0.0 mm 0.00 in0.0 mm
01:45 AM 58.5°F14.7°C 53.0°F11.7°C 82% 4.5 mph SE7.2 kmh SE 9.2 mph14.8 kmh 29.72 in1006.4 mb 0.00 in0.0 mm 0.00 in0.0 mm 0.00 in0.0 mm
01:30 AM 58.8°F14.9°C 53.3°F11.8°C 82% 4.5 mph SE7.2 kmh SE 6.0 mph9.7 kmh 29.73 in1006.8 mb 0.00 in0.0 mm 0.00 in0.0 mm 0.00 in0.0 mm
01:15 AM 59.0°F15.0°C 53.5°F11.9°C 82% 1.6 mph SE2.6 kmh SE 6.0 mph9.7 kmh 29.73 in1006.8 mb 0.00 in0.0 mm 0.00 in0.0 mm 0.00 in0.0 mm
01:00 AM 59.0°F15.0°C 53.5°F11.9°C 82% 4.5 mph ESE7.2 kmh ESE 6.9 mph11.1 kmh 29.74 in1007.1 mb 0.00 in0.0 mm 0.00 in0.0 mm 0.00 in0.0 mm
12:45 AM 59.0°F15.0°C 53.5°F11.9°C 82% 2.2 mph SE3.5 kmh SE 6.9 mph11.1 kmh 29.74 in1007.1 mb 0.00 in0.0 mm 0.00 in0.0 mm 0.00 in0.0 mm
12:30 AM 59.2°F15.1°C 53.7°F12.1°C 82% 5.4 mph SE8.7 kmh SE 7.6 mph12.2 kmh 29.74 in1007.1 mb 0.00 in0.0 mm 0.00 in0.0 mm 0.00 in0.0 mm
12:15 AM 59.4°F15.2°C 53.9°F12.2°C 82% 1.6 mph ESE2.6 kmh ESE 7.6 mph12.2 kmh 29.75 in1007.5 mb 0.00 in0.0 mm 0.00 in0.0 mm 0.00 in0.0 mm
12:00 AM 59.4°F15.2°C 53.5°F11.9°C 81% 2.2 mph SE3.5 kmh SE 6.0 mph9.7 kmh 29.75 in1007.5 mb 0.00 in0.0 mm 0.00 in0.0 mm 0.00 in0.0 mm